Deer Grove, Illinois
Current Conditions -  °F | °C
As of 7:35 AM on Thursday 23 Oct 2014 (Local Time) from KSQI Reporting Station
Clear Clear  
Wind Chill: 29°   Ceiling: Unl
Heat Index: 34°   Visibility: 6mi
Dew Point: 28°   Wind: 6mph
Humidity: 81%   Direction: 130°SE
Pressure: 30.18"   Gusts: NA
Location:  41.61°N, 89.69°W
Report Text: KSQI 231235Z AUTO 13005KT 6SM CLR 01/M02 A3018 RMK AO1
Loading
Personal Weather Stations






























Interactive Weather Map
Tropical Storm Tracking
New forecast layout! Learn more

10-Day Weather Forecast

Advertisements
Track Severe Weather on mobile